createdAt,value
2018-07-11T00:00:47.553Z,97.99
2018-07-11T00:01:53.271Z,97.95
2018-07-11T00:02:59.879Z,98.09
2018-07-11T00:04:04.975Z,97.91
2018-07-11T00:05:09.828Z,98.12
2018-07-11T00:06:16.445Z,98.12
2018-07-11T00:07:21.003Z,98.18
2018-07-11T00:08:25.813Z,97.92
2018-07-11T00:09:30.396Z,97.80
2018-07-11T00:10:35.082Z,97.95
2018-07-11T00:11:40.638Z,97.94
2018-07-11T00:12:47.086Z,98.00
2018-07-11T00:13:52.206Z,98.01
2018-07-11T00:14:57.713Z,97.65
2018-07-11T00:16:02.958Z,97.75
2018-07-11T00:17:11.562Z,97.51
2018-07-11T00:18:17.092Z,97.58
2018-07-11T00:19:22.337Z,97.47
2018-07-11T00:20:26.864Z,97.38
2018-07-11T00:21:32.310Z,97.43
2018-07-11T00:22:37.584Z,97.49
2018-07-11T00:23:42.173Z,97.22
2018-07-11T00:24:46.769Z,97.51
2018-07-11T00:25:51.340Z,97.67
2018-07-11T00:26:56.787Z,97.23
2018-07-11T00:28:03.442Z,97.27
2018-07-11T00:29:09.358Z,97.33
2018-07-11T00:30:15.082Z,97.08
2018-07-11T00:31:21.380Z,97.29
2018-07-11T00:32:26.008Z,97.49
2018-07-11T00:33:31.779Z,97.44
2018-07-11T00:34:36.612Z,97.21
2018-07-11T00:35:41.919Z,97.31
2018-07-11T00:36:47.009Z,97.45
2018-07-11T00:37:51.641Z,97.24
2018-07-11T00:38:56.137Z,97.41
2018-07-11T00:40:00.679Z,97.32
2018-07-11T00:41:06.790Z,97.47
2018-07-11T00:42:12.530Z,97.12
2018-07-11T00:43:17.499Z,97.34
2018-07-11T00:44:22.886Z,97.50
2018-07-11T00:45:27.490Z,97.40
2018-07-11T00:46:32.024Z,97.27
2018-07-11T00:47:37.800Z,97.56
2018-07-11T00:48:42.337Z,97.35
2018-07-11T00:49:47.409Z,97.52
2018-07-11T00:50:53.599Z,97.50
2018-07-11T00:51:58.346Z,97.36
2018-07-11T00:53:03.273Z,97.56
2018-07-11T00:54:09.911Z,97.50
2018-07-11T00:55:15.228Z,97.42
2018-07-11T00:56:22.809Z,97.39
2018-07-11T00:57:32.564Z,97.59
2018-07-11T00:58:39.612Z,97.44
2018-07-11T00:59:46.163Z,97.60
2018-07-11T01:00:56.169Z,97.61
2018-07-11T01:02:06.013Z,97.62
2018-07-11T01:03:11.614Z,97.63
2018-07-11T01:04:17.415Z,97.48
2018-07-11T01:05:24.794Z,97.35
2018-07-11T01:06:32.949Z,97.70
2018-07-11T01:07:41.930Z,97.44
2018-07-11T01:08:47.122Z,97.44
2018-07-11T01:09:52.603Z,97.46
2018-07-11T01:10:57.823Z,97.65
2018-07-11T01:12:13.965Z,97.68
2018-07-11T01:13:19.037Z,97.61
2018-07-11T01:14:23.705Z,97.57
2018-07-11T01:15:28.376Z,97.50
2018-07-11T01:16:34.316Z,97.63
2018-07-11T01:17:45.624Z,97.50
2018-07-11T01:19:09.241Z,97.43
2018-07-11T01:20:14.217Z,97.55
2018-07-11T01:21:18.906Z,97.48
2018-07-11T01:22:23.545Z,97.59
2018-07-11T01:23:28.228Z,97.44
2018-07-11T01:24:33.601Z,97.65
2018-07-11T01:25:38.156Z,97.50
2018-07-11T01:26:42.759Z,97.43
2018-07-11T01:27:48.272Z,97.54
2018-07-11T01:28:52.779Z,97.49
2018-07-11T01:29:57.520Z,97.34
2018-07-11T01:31:03.340Z,97.38
2018-07-11T01:32:07.887Z,97.59
2018-07-11T01:33:13.118Z,97.37
2018-07-11T01:34:17.617Z,97.24
2018-07-11T01:35:22.169Z,97.51
2018-07-11T01:36:27.836Z,97.55
2018-07-11T01:37:32.645Z,97.21
2018-07-11T01:38:37.166Z,97.54
2018-07-11T01:39:43.570Z,97.26
2018-07-11T01:40:49.206Z,97.34
2018-07-11T01:41:53.910Z,97.58
2018-07-11T01:42:58.591Z,97.57
2018-07-11T01:44:03.521Z,97.25
2018-07-11T01:45:08.150Z,97.43
2018-07-11T01:46:13.789Z,97.43
2018-07-11T01:47:18.442Z,97.34
2018-07-11T01:48:23.104Z,97.37
2018-07-11T01:49:27.756Z,97.38
2018-07-11T01:50:33.320Z,97.36
2018-07-11T01:51:46.645Z,97.57
2018-07-11T01:52:59.189Z,97.56
2018-07-11T01:54:03.836Z,97.45
2018-07-11T01:55:08.500Z,97.33
2018-07-11T01:56:13.521Z,97.45
2018-07-11T01:57:18.535Z,97.46
2018-07-11T01:58:23.182Z,97.30
2018-07-11T01:59:31.664Z,97.25
2018-07-11T02:00:37.010Z,97.26
2018-07-11T02:01:43.643Z,97.26
2018-07-11T02:02:49.372Z,97.32
2018-07-11T02:03:54.170Z,97.19
2018-07-11T02:04:59.480Z,97.61
2018-07-11T02:06:04.068Z,97.33
2018-07-11T02:07:09.031Z,97.35
2018-07-11T02:08:13.616Z,97.54
2018-07-11T02:09:18.996Z,97.52
2018-07-11T02:10:23.837Z,97.43
2018-07-11T02:11:28.392Z,97.44
2018-07-11T02:12:33.726Z,97.35
2018-07-11T02:13:38.740Z,97.42
2018-07-11T02:14:46.860Z,97.52
2018-07-11T02:15:53.721Z,97.30
2018-07-11T02:17:03.128Z,97.54
2018-07-11T02:18:08.622Z,97.34
2018-07-11T02:19:14.753Z,97.40
2018-07-11T02:20:21.099Z,97.36
2018-07-11T02:21:27.737Z,97.53
2018-07-11T02:22:36.415Z,97.64
2018-07-11T02:23:47.790Z,97.49
2018-07-11T02:24:57.461Z,97.73
2018-07-11T02:26:05.074Z,97.80
2018-07-11T02:27:10.535Z,97.75
2018-07-11T02:28:17.998Z,97.75
2018-07-11T02:29:22.819Z,97.75
2018-07-11T02:30:27.919Z,97.67
2018-07-11T02:31:32.706Z,97.77
2018-07-11T02:32:37.396Z,97.61
2018-07-11T02:33:42.037Z,97.75
2018-07-11T02:34:46.825Z,97.69
2018-07-11T02:35:51.998Z,97.79
2018-07-11T02:36:56.949Z,97.92
2018-07-11T02:38:01.598Z,97.80
2018-07-11T02:39:06.770Z,97.83
2018-07-11T02:40:11.421Z,98.24
2018-07-11T02:41:16.124Z,97.73
2018-07-11T02:42:20.796Z,97.71
2018-07-11T02:43:25.751Z,97.98
2018-07-11T02:44:30.371Z,97.69
2018-07-11T02:45:35.034Z,97.74
2018-07-11T02:46:44.555Z,97.80
2018-07-11T02:47:49.216Z,97.85
2018-07-11T02:48:54.854Z,97.86
2018-07-11T02:49:59.808Z,97.94
2018-07-11T02:51:04.412Z,97.69
2018-07-11T02:52:09.096Z,97.96
2018-07-11T02:53:17.927Z,97.71
2018-07-11T02:54:22.585Z,97.94
2018-07-11T02:55:27.242Z,97.70
2018-07-11T02:56:32.169Z,97.80
2018-07-11T02:57:36.825Z,98.03
2018-07-11T02:58:41.475Z,97.90
2018-07-11T02:59:46.120Z,97.91
2018-07-11T03:00:51.283Z,98.09
2018-07-11T03:01:55.954Z,98.07
2018-07-11T03:03:01.045Z,97.88
2018-07-11T03:04:05.717Z,98.13
2018-07-11T03:05:10.876Z,98.18
2018-07-11T03:06:16.139Z,98.11
2018-07-11T03:07:20.829Z,97.88
2018-07-11T03:08:29.657Z,98.02
2018-07-11T03:09:34.284Z,97.90
2018-07-11T03:10:39.100Z,97.95
2018-07-11T03:11:43.784Z,98.10
2018-07-11T03:12:48.643Z,97.92
2018-07-11T03:13:53.696Z,97.89
2018-07-11T03:14:58.619Z,97.92
2018-07-11T03:16:03.492Z,98.18
2018-07-11T03:17:08.140Z,98.08
2018-07-11T03:18:12.912Z,97.89
2018-07-11T03:19:17.591Z,98.02
2018-07-11T03:20:22.231Z,98.00
2018-07-11T03:21:27.185Z,97.96
2018-07-11T03:22:32.549Z,98.09
2018-07-11T03:23:37.234Z,98.16
2018-07-11T03:24:42.312Z,98.05
2018-07-11T03:25:46.955Z,98.06
2018-07-11T03:26:51.660Z,97.84
2018-07-11T03:27:56.568Z,97.83
2018-07-11T03:29:01.255Z,97.79
2018-07-11T03:30:06.760Z,97.95
2018-07-11T03:31:11.442Z,98.06
2018-07-11T03:32:16.179Z,97.89
2018-07-11T03:33:20.878Z,98.09
2018-07-11T03:34:25.821Z,98.02
2018-07-11T03:35:30.487Z,98.05
2018-07-11T03:36:35.128Z,97.83
2018-07-11T03:37:39.744Z,97.95
2018-07-11T03:38:44.436Z,97.91
2018-07-11T03:39:49.091Z,97.75
2018-07-11T03:40:54.664Z,97.95
2018-07-11T03:41:59.278Z,97.70
2018-07-11T03:43:04.026Z,97.70
2018-07-11T03:44:08.712Z,97.72
2018-07-11T03:45:13.377Z,97.66
2018-07-11T03:46:18.031Z,97.71
2018-07-11T03:47:22.989Z,97.77
2018-07-11T03:48:28.981Z,97.68
2018-07-11T03:49:33.599Z,97.81
2018-07-11T03:50:38.251Z,97.65
2018-07-11T03:51:42.876Z,97.74
2018-07-11T03:52:47.520Z,97.62
2018-07-11T03:53:52.480Z,97.61
2018-07-11T03:54:57.220Z,97.55
2018-07-11T03:56:01.909Z,97.49
2018-07-11T03:57:06.580Z,97.48
2018-07-11T03:58:11.228Z,97.40
2018-07-11T03:59:15.868Z,97.43
2018-07-11T04:00:20.999Z,97.46
2018-07-11T04:01:25.684Z,97.67
2018-07-11T04:02:30.193Z,97.60
2018-07-11T04:03:34.748Z,97.37
2018-07-11T04:04:39.244Z,97.34
2018-07-11T04:05:43.777Z,97.27
2018-07-11T04:06:49.263Z,97.26
2018-07-11T04:07:53.789Z,97.30
2018-07-11T04:08:58.302Z,97.53
2018-07-11T04:10:02.866Z,97.27
2018-07-11T04:11:07.598Z,97.25
2018-07-11T04:12:12.142Z,97.44
2018-07-11T04:13:17.572Z,97.43
2018-07-11T04:14:22.134Z,97.38
2018-07-11T04:15:26.699Z,97.47
2018-07-11T04:16:31.265Z,97.28
2018-07-11T04:17:35.766Z,97.31
2018-07-11T04:18:40.294Z,97.43
2018-07-11T04:19:45.218Z,97.19
2018-07-11T04:20:49.776Z,97.21
2018-07-11T04:21:54.257Z,97.31
2018-07-11T04:22:59.577Z,97.34
2018-07-11T04:24:04.163Z,97.23
2018-07-11T04:25:08.844Z,97.53
2018-07-11T04:26:13.883Z,97.13
2018-07-11T04:27:18.643Z,97.51
2018-07-11T04:28:25.612Z,97.04
2018-07-11T04:29:30.265Z,97.03
2018-07-11T04:30:34.907Z,97.12
2018-07-11T04:31:39.600Z,97.22
2018-07-11T04:32:44.211Z,97.17
2018-07-11T04:33:49.849Z,97.13
2018-07-11T04:34:54.503Z,97.11
2018-07-11T04:36:02.043Z,97.16
2018-07-11T04:37:06.718Z,96.92
2018-07-11T04:38:11.428Z,97.26
2018-07-11T04:39:17.589Z,97.12
2018-07-11T04:40:22.249Z,97.16
2018-07-11T04:41:26.977Z,97.27
2018-07-11T04:42:33.364Z,96.91
2018-07-11T04:43:37.874Z,97.13
2018-07-11T04:44:42.852Z,97.05
2018-07-11T04:45:48.956Z,97.33
2018-07-11T04:46:53.536Z,97.05
2018-07-11T04:47:58.113Z,97.14
2018-07-11T04:49:02.668Z,97.03
2018-07-11T04:50:10.198Z,96.97
2018-07-11T04:51:15.090Z,96.95
2018-07-11T04:52:20.984Z,96.89
2018-07-11T04:53:26.540Z,96.86
2018-07-11T04:54:31.205Z,96.97
2018-07-11T04:55:36.056Z,97.02
2018-07-11T04:56:40.734Z,96.97
2018-07-11T04:57:45.923Z,97.09
2018-07-11T04:58:50.606Z,97.22
2018-07-11T04:59:55.311Z,97.03
2018-07-11T05:01:00.213Z,96.99
2018-07-11T05:02:05.776Z,97.34
2018-07-11T05:03:17.353Z,96.91
2018-07-11T05:04:22.102Z,97.01
2018-07-11T05:05:26.913Z,96.85
2018-07-11T05:06:31.624Z,96.89
2018-07-11T05:07:36.273Z,96.91
2018-07-11T05:08:42.801Z,96.93
2018-07-11T05:09:47.846Z,96.88
2018-07-11T05:10:53.158Z,96.80
2018-07-11T05:11:58.052Z,96.79
2018-07-11T05:13:03.492Z,96.55
2018-07-11T05:14:08.248Z,96.77
2018-07-11T05:15:13.005Z,96.42
2018-07-11T05:16:19.215Z,96.35
2018-07-11T05:17:24.899Z,96.42
2018-07-11T05:18:29.685Z,96.40
2018-07-11T05:19:34.322Z,96.41
2018-07-11T05:20:39.070Z,96.31
2018-07-11T05:21:43.847Z,96.39
2018-07-11T05:22:48.795Z,96.30
2018-07-11T05:23:53.473Z,96.41
2018-07-11T05:24:58.555Z,96.29
2018-07-11T05:26:03.494Z,96.20
2018-07-11T05:27:09.230Z,96.21
2018-07-11T05:28:13.949Z,96.33
2018-07-11T05:29:20.861Z,96.15
2018-07-11T05:30:27.129Z,96.09
2018-07-11T05:31:31.773Z,96.04
2018-07-11T05:32:36.487Z,96.07
2018-07-11T05:33:41.229Z,96.13
2018-07-11T05:34:46.025Z,95.95
2018-07-11T05:35:51.773Z,95.79
2018-07-11T05:36:56.461Z,96.06
2018-07-11T05:38:01.153Z,95.69
2018-07-11T05:39:06.036Z,95.71
2018-07-11T05:40:10.743Z,95.79
2018-07-11T05:41:15.744Z,95.79
2018-07-11T05:42:20.973Z,95.63
2018-07-11T05:43:25.645Z,95.66
2018-07-11T05:44:30.356Z,95.58
2018-07-11T05:45:35.076Z,95.43
2018-07-11T05:46:40.761Z,95.65
2018-07-11T05:47:46.440Z,95.43
2018-07-11T05:48:51.964Z,95.25
2018-07-11T05:49:56.664Z,95.51
2018-07-11T05:51:01.325Z,95.64
2018-07-11T05:52:06.039Z,95.43
2018-07-11T05:53:10.735Z,95.46
2018-07-11T05:54:15.437Z,95.35
2018-07-11T05:55:20.551Z,95.56
2018-07-11T05:56:26.095Z,95.38
2018-07-11T05:57:30.838Z,95.38
2018-07-11T05:58:35.452Z,95.56
2018-07-11T05:59:40.640Z,95.54
2018-07-11T06:00:45.169Z,95.59
2018-07-11T06:01:51.099Z,95.37
2018-07-11T06:02:55.718Z,95.35
2018-07-11T06:04:03.455Z,95.48
2018-07-11T06:05:09.308Z,95.32
2018-07-11T06:06:14.595Z,95.29
2018-07-11T06:07:19.851Z,95.08
2018-07-11T06:08:25.626Z,94.94
2018-07-11T06:09:30.593Z,94.92
2018-07-11T06:10:37.060Z,95.00
2018-07-11T06:11:43.028Z,94.98
2018-07-11T06:12:47.678Z,94.82
2018-07-11T06:13:54.500Z,94.82
2018-07-11T06:14:59.257Z,94.67
2018-07-11T06:16:04.542Z,94.60
2018-07-11T06:17:11.283Z,94.46
2018-07-11T06:18:16.369Z,94.16
2018-07-11T06:19:21.415Z,94.25
2018-07-11T06:20:26.129Z,94.12
2018-07-11T06:21:31.749Z,93.90
2018-07-11T06:22:37.175Z,93.69
2018-07-11T06:23:41.853Z,93.61
2018-07-11T06:25:58.060Z,93.30
2018-07-11T06:27:02.621Z,93.03
2018-07-11T06:28:07.149Z,93.03
2018-07-11T06:29:11.836Z,92.86
2018-07-11T06:30:16.743Z,92.68
2018-07-11T06:31:23.087Z,92.68
2018-07-11T06:32:27.783Z,92.51
2018-07-11T06:33:32.848Z,92.30
2018-07-11T06:34:37.667Z,92.10
2018-07-11T06:35:42.353Z,91.86
2018-07-11T06:36:47.411Z,91.73
2018-07-11T06:37:52.137Z,91.74
2018-07-11T06:38:56.788Z,91.67
2018-07-11T06:40:01.460Z,91.39
2018-07-11T06:41:06.024Z,91.30
2018-07-11T06:42:12.743Z,91.24
2018-07-11T06:43:17.590Z,91.20
2018-07-11T06:44:22.940Z,91.45
2018-07-11T06:45:27.644Z,91.53
2018-07-11T06:46:34.120Z,91.26
2018-07-11T06:47:39.330Z,91.34
2018-07-11T06:48:44.575Z,91.27
2018-07-11T06:49:49.544Z,91.04
2018-07-11T06:50:54.525Z,91.02
2018-07-11T06:51:59.868Z,90.86
2018-07-11T06:53:04.526Z,91.38
2018-07-11T06:54:09.120Z,91.01
2018-07-11T06:55:14.719Z,90.74
2018-07-11T06:56:19.824Z,90.44
2018-07-11T06:57:24.514Z,90.27
2018-07-11T06:58:29.470Z,89.96
2018-07-11T06:59:34.072Z,89.45
2018-07-11T07:00:38.638Z,88.93
2018-07-11T07:01:43.235Z,88.56
2018-07-11T07:02:49.013Z,88.16
2018-07-11T07:03:54.267Z,87.96
2018-07-11T07:04:58.816Z,87.60
2018-07-11T07:06:03.440Z,87.43
2018-07-11T07:07:08.069Z,87.39
2018-07-11T07:08:14.076Z,87.26
2018-07-11T07:09:19.178Z,87.24
2018-07-11T07:10:23.889Z,87.22
2018-07-11T07:11:28.528Z,87.15
2018-07-11T07:12:33.141Z,87.05
2018-07-11T07:13:38.024Z,86.77
2018-07-11T07:14:43.569Z,86.50
2018-07-11T07:15:49.920Z,86.43
2018-07-11T07:16:54.985Z,86.14
2018-07-11T07:18:00.260Z,86.16
2018-07-11T07:19:06.275Z,85.99
2018-07-11T07:20:11.679Z,85.66
2018-07-11T07:21:16.281Z,85.33
2018-07-11T07:22:21.156Z,84.97
2018-07-11T07:23:25.861Z,84.84
2018-07-11T07:24:30.479Z,84.81
2018-07-11T07:25:35.147Z,84.66
2018-07-11T07:26:40.655Z,84.28
2018-07-11T07:27:45.252Z,84.05
2018-07-11T07:28:50.134Z,83.82
2018-07-11T07:29:55.927Z,83.54
2018-07-11T07:31:00.532Z,83.37
2018-07-11T07:32:05.082Z,83.07
2018-07-11T07:33:09.642Z,82.92
2018-07-11T07:34:16.630Z,83.05
2018-07-11T07:35:21.585Z,82.90
2018-07-11T07:36:27.341Z,82.82
2018-07-11T07:37:31.879Z,82.57
2018-07-11T07:38:40.002Z,82.22
2018-07-11T07:39:44.601Z,82.49
2018-07-11T07:40:51.192Z,82.36
2018-07-11T07:41:56.660Z,82.16
2018-07-11T07:43:02.097Z,82.29
2018-07-11T07:44:09.411Z,82.26
2018-07-11T07:45:13.978Z,82.25
2018-07-11T07:46:18.880Z,82.21
2018-07-11T07:47:28.520Z,81.86
2018-07-11T07:48:33.095Z,81.49
2018-07-11T07:49:37.681Z,81.44
2018-07-11T07:50:42.232Z,81.09
2018-07-11T07:51:46.828Z,80.44
2018-07-11T07:52:52.061Z,80.09
2018-07-11T07:53:57.109Z,79.33
2018-07-11T07:55:02.328Z,79.39
2018-07-11T07:56:07.743Z,79.02
2018-07-11T07:57:12.426Z,78.45
2018-07-11T07:58:18.019Z,78.47
2018-07-11T07:59:22.911Z,78.43
2018-07-11T08:00:27.788Z,77.80
2018-07-11T08:01:33.038Z,77.43
2018-07-11T08:02:38.626Z,76.95
2018-07-11T08:03:43.217Z,77.13
2018-07-11T08:04:48.329Z,76.28
2018-07-11T08:05:55.675Z,76.42
2018-07-11T08:07:01.386Z,76.04
2018-07-11T08:08:06.697Z,76.33
2018-07-11T08:09:11.219Z,75.55
2018-07-11T08:10:27.235Z,74.91
2018-07-11T08:11:31.848Z,74.82
2018-07-11T08:12:37.237Z,74.63
2018-07-11T08:13:42.253Z,74.52
2018-07-11T08:14:46.928Z,74.11
2018-07-11T08:15:51.497Z,73.93
2018-07-11T08:16:56.061Z,74.25
2018-07-11T08:18:00.603Z,74.14
2018-07-11T08:19:11.246Z,73.77
2018-07-11T08:20:16.546Z,73.09
2018-07-11T08:21:21.259Z,72.98
2018-07-11T08:22:31.080Z,73.84
2018-07-11T08:23:41.954Z,74.02
2018-07-11T08:24:53.511Z,74.42
2018-07-11T08:26:06.129Z,74.27
2018-07-11T08:27:15.990Z,73.96
2018-07-11T08:28:56.020Z,73.41
2018-07-11T08:30:10.815Z,72.79
2018-07-11T08:33:21.579Z,72.05
2018-07-11T08:34:31.288Z,71.22
2018-07-11T08:35:47.641Z,70.14
2018-07-11T08:38:59.906Z,70.18
2018-07-11T08:40:10.303Z,69.73
2018-07-11T08:41:23.518Z,69.33
2018-07-11T08:42:32.834Z,69.52
2018-07-11T08:43:42.454Z,69.86
2018-07-11T08:44:51.749Z,69.64
2018-07-11T08:46:00.117Z,69.84
2018-07-11T08:56:56.517Z,69.72
2018-07-11T08:58:06.328Z,67.32
2018-07-11T08:59:16.242Z,66.83
2018-07-11T09:02:29.195Z,66.69
2018-07-11T09:04:37.001Z,64.88
2018-07-11T09:06:49.732Z,64.28
2018-07-11T09:10:02.234Z,65.12
2018-07-11T09:13:14.753Z,64.42
2018-07-11T09:14:28.122Z,63.99
2018-07-11T09:15:38.276Z,63.81
2018-07-11T09:18:53.866Z,64.30
2018-07-11T09:20:08.916Z,63.69
2018-07-11T09:21:22.512Z,62.85
2018-07-11T09:22:33.401Z,62.64
2018-07-11T09:23:43.241Z,62.74
2018-07-11T09:24:49.984Z,62.57
2018-07-11T09:25:55.301Z,61.69
2018-07-11T09:26:59.807Z,61.83
2018-07-11T09:28:05.013Z,62.00
2018-07-11T09:29:09.646Z,61.95
2018-07-11T09:30:14.305Z,62.11
2018-07-11T09:31:18.865Z,61.70
2018-07-11T09:32:23.712Z,61.32
2018-07-11T09:33:28.278Z,60.80
2018-07-11T09:34:33.219Z,61.16
2018-07-11T09:35:38.112Z,60.86
2018-07-11T09:36:42.660Z,60.79
2018-07-11T09:37:47.203Z,60.65
2018-07-11T09:38:52.665Z,60.76
2018-07-11T09:39:59.248Z,60.63
2018-07-11T09:41:04.048Z,60.92
2018-07-11T09:42:08.688Z,61.39
2018-07-11T09:43:13.526Z,61.32
2018-07-11T09:44:18.076Z,61.31
2018-07-11T09:45:23.306Z,61.00
2018-07-11T09:46:28.656Z,61.18
2018-07-11T09:47:33.555Z,60.73
2018-07-11T09:48:38.046Z,60.76
2018-07-11T09:49:42.589Z,60.76
2018-07-11T09:50:47.799Z,60.54
2018-07-11T09:51:53.143Z,60.38
2018-07-11T09:52:58.094Z,60.80
2018-07-11T09:54:03.145Z,60.71
2018-07-11T09:55:07.776Z,61.09
2018-07-11T09:56:13.689Z,61.15
2018-07-11T09:57:18.599Z,60.79
2018-07-11T09:58:24.703Z,60.64
2018-07-11T09:59:29.277Z,61.00
2018-07-11T10:00:41.018Z,61.51
2018-07-11T10:01:45.536Z,61.56
2018-07-11T10:02:50.973Z,61.31
2018-07-11T10:03:56.687Z,61.48
2018-07-11T10:05:01.233Z,61.22
2018-07-11T10:06:05.791Z,61.10
2018-07-11T10:07:10.707Z,60.89
2018-07-11T10:08:15.967Z,60.69
2018-07-11T10:09:20.516Z,60.84
2018-07-11T10:10:25.778Z,60.91
2018-07-11T10:11:30.313Z,60.72
2018-07-11T10:12:36.142Z,60.60
2018-07-11T10:13:41.912Z,60.92
2018-07-11T10:14:46.470Z,60.85
2018-07-11T10:15:51.179Z,60.74
2018-07-11T10:16:56.256Z,60.52
2018-07-11T10:18:02.448Z,60.67
2018-07-11T10:19:07.996Z,60.44
2018-07-11T10:20:14.397Z,60.62
2018-07-11T10:21:20.303Z,60.62
2018-07-11T10:22:26.026Z,60.81
2018-07-11T10:23:31.708Z,60.92
2018-07-11T10:24:37.764Z,60.76
2018-07-11T10:25:43.041Z,60.87
2018-07-11T10:26:49.680Z,61.06
2018-07-11T10:28:00.157Z,61.28
2018-07-11T10:29:05.274Z,61.52
2018-07-11T10:30:09.941Z,61.51
2018-07-11T10:31:14.511Z,61.59
2018-07-11T10:32:19.327Z,61.78
2018-07-11T10:33:27.291Z,61.87
2018-07-11T10:34:34.978Z,61.65
2018-07-11T10:35:39.610Z,61.31
2018-07-11T10:36:45.723Z,61.41
2018-07-11T10:37:51.695Z,61.30
2018-07-11T10:39:00.596Z,61.50
2018-07-11T10:40:06.225Z,61.58
2018-07-11T10:41:12.797Z,61.62
2018-07-11T10:42:17.288Z,61.71
2018-07-11T10:43:21.835Z,61.60
2018-07-11T10:44:28.656Z,61.61
2018-07-11T10:45:34.919Z,61.91
2018-07-11T10:46:40.377Z,61.97
2018-07-11T10:47:44.844Z,61.92
2018-07-11T10:48:51.012Z,61.81
2018-07-11T10:49:56.148Z,62.00
2018-07-11T10:51:01.384Z,62.03
2018-07-11T10:52:08.734Z,62.28
2018-07-11T10:53:15.784Z,61.88
2018-07-11T10:54:20.351Z,62.01
2018-07-11T10:55:25.700Z,62.20
2018-07-11T10:56:35.046Z,62.18
2018-07-11T10:57:42.120Z,62.62
2018-07-11T10:58:49.189Z,62.59
2018-07-11T10:59:56.344Z,62.15
2018-07-11T11:01:05.701Z,62.06
2018-07-11T11:02:07.920Z,61.70
2018-07-11T11:03:13.843Z,61.52
2018-07-11T11:04:24.774Z,61.33
2018-07-11T11:05:29.603Z,61.11
2018-07-11T11:06:36.291Z,60.62
2018-07-11T11:07:43.143Z,60.51
2018-07-11T11:08:48.418Z,60.78
2018-07-11T11:09:55.931Z,60.57
2018-07-11T11:11:01.047Z,60.42
2018-07-11T11:12:08.603Z,60.41
2018-07-11T11:13:13.826Z,60.20
2018-07-11T11:14:19.291Z,60.43
2018-07-11T11:15:24.740Z,60.52
2018-07-11T11:16:31.068Z,60.49
2018-07-11T11:17:36.985Z,60.47
2018-07-11T11:18:41.893Z,60.78
2018-07-11T11:19:46.678Z,60.94
2018-07-11T11:20:52.291Z,61.30
2018-07-11T11:21:58.420Z,61.55
2018-07-11T11:23:07.369Z,61.84
2018-07-11T11:24:13.359Z,62.12
2018-07-11T11:25:21.120Z,62.27
2018-07-11T11:26:26.368Z,62.44
2018-07-11T11:27:31.998Z,62.63
2018-07-11T11:28:38.396Z,63.10
2018-07-11T11:29:46.034Z,63.06
2018-07-11T11:30:52.368Z,63.09
2018-07-11T11:32:00.545Z,62.86
2018-07-11T11:33:06.949Z,62.83
2018-07-11T11:34:11.578Z,63.12
2018-07-11T11:35:18.187Z,63.16
2018-07-11T11:36:24.281Z,63.24
2018-07-11T11:37:36.030Z,63.09
2018-07-11T11:38:49.191Z,62.84
2018-07-11T11:39:57.002Z,63.16
2018-07-11T11:41:05.987Z,63.59
2018-07-11T11:42:12.961Z,63.66
2018-07-11T11:43:17.532Z,64.02
2018-07-11T11:44:22.527Z,63.55
2018-07-11T11:45:27.274Z,63.41
2018-07-11T11:46:34.344Z,63.29
2018-07-11T11:47:41.743Z,63.65
2018-07-11T11:48:46.263Z,61.83
2018-07-11T11:49:51.618Z,61.90
2018-07-11T11:50:58.512Z,61.54
2018-07-11T11:52:04.924Z,61.28
2018-07-11T11:53:10.253Z,61.08
2018-07-11T11:54:16.284Z,60.71
2018-07-11T11:55:22.344Z,60.60
2018-07-11T11:56:26.859Z,60.51
2018-07-11T11:57:31.479Z,60.41
2018-07-11T11:58:36.083Z,60.57
2018-07-11T11:59:43.036Z,60.73
2018-07-11T12:00:49.201Z,60.75
2018-07-11T12:01:54.210Z,60.53
2018-07-11T12:02:59.269Z,60.50
2018-07-11T12:04:04.356Z,59.95
2018-07-11T12:05:12.691Z,60.18
2018-07-11T12:06:17.301Z,59.90
2018-07-11T12:07:23.078Z,59.81
2018-07-11T12:08:28.264Z,59.43
2018-07-11T12:09:35.445Z,59.32
2018-07-11T12:10:40.760Z,59.01
2018-07-11T12:11:46.659Z,58.86
2018-07-11T12:12:52.377Z,58.65
2018-07-11T12:13:58.222Z,58.43
2018-07-11T12:15:02.831Z,58.46
2018-07-11T12:16:10.428Z,58.58
2018-07-11T12:17:16.227Z,58.35
2018-07-11T12:18:20.798Z,58.54
2018-07-11T12:19:26.925Z,58.73
2018-07-11T12:20:31.804Z,58.63
2018-07-11T12:21:39.037Z,58.93
2018-07-11T12:22:44.438Z,59.95
2018-07-11T12:23:49.551Z,60.52
2018-07-11T12:24:56.078Z,60.71
2018-07-11T12:26:10.258Z,60.31
2018-07-11T12:27:15.382Z,60.33
2018-07-11T12:28:21.420Z,59.80
2018-07-11T12:29:25.934Z,59.47
2018-07-11T12:30:30.517Z,59.32
2018-07-11T12:31:38.067Z,58.63
2018-07-11T12:32:43.836Z,58.56
2018-07-11T12:33:48.604Z,58.67
2018-07-11T12:34:54.118Z,59.39
2018-07-11T12:36:00.432Z,59.46
2018-07-11T12:37:05.066Z,59.85
2018-07-11T12:38:09.663Z,59.68
2018-07-11T12:39:15.529Z,59.75
2018-07-11T12:40:22.059Z,60.27
2018-07-11T12:41:26.797Z,60.17
2018-07-11T12:42:33.331Z,60.70
2018-07-11T12:43:41.062Z,60.67
2018-07-11T12:44:46.306Z,60.57
2018-07-11T12:45:51.417Z,60.59
2018-07-11T12:46:57.252Z,60.79
2018-07-11T12:48:07.255Z,60.74
2018-07-11T12:49:12.606Z,60.77
2018-07-11T12:50:17.253Z,60.55
2018-07-11T12:51:22.431Z,60.66
2018-07-11T12:52:27.260Z,61.11
2018-07-11T12:53:31.831Z,61.37
2018-07-11T12:54:37.185Z,61.17
2018-07-11T12:55:41.769Z,61.17
2018-07-11T12:56:47.333Z,61.44
2018-07-11T12:57:52.725Z,61.76
2018-07-11T12:59:00.685Z,62.13
2018-07-11T13:00:05.625Z,62.33
2018-07-11T13:01:11.698Z,62.61
2018-07-11T13:02:16.208Z,62.61
2018-07-11T13:03:20.833Z,62.87
2018-07-11T13:04:25.437Z,62.79
2018-07-11T13:05:31.040Z,62.64
2018-07-11T13:06:38.599Z,62.80
2018-07-11T13:07:43.480Z,62.69
2018-07-11T13:08:48.103Z,62.74
2018-07-11T13:09:54.262Z,62.58
2018-07-11T13:10:58.866Z,62.80
2018-07-11T13:12:10.309Z,62.66
2018-07-11T13:13:14.902Z,62.48
2018-07-11T13:14:21.060Z,62.51
2018-07-11T13:15:26.042Z,62.81
2018-07-11T13:16:31.627Z,63.13
2018-07-11T13:17:36.292Z,63.51
2018-07-11T13:18:41.167Z,63.65
2018-07-11T13:19:45.755Z,63.80
2018-07-11T13:20:51.066Z,64.01
2018-07-11T13:22:02.194Z,63.94
2018-07-11T13:23:09.349Z,63.90
2018-07-11T13:24:20.120Z,64.37
2018-07-11T13:25:26.842Z,64.24
2018-07-11T13:26:35.344Z,64.58
2018-07-11T13:27:39.855Z,64.42
2018-07-11T13:28:44.830Z,64.65
2018-07-11T13:29:49.779Z,64.89
2018-07-11T13:31:00.778Z,64.95
2018-07-11T13:32:07.175Z,64.62
2018-07-11T13:33:11.733Z,64.55
2018-07-11T13:34:17.340Z,64.60
2018-07-11T13:35:21.879Z,64.41
2018-07-11T13:36:26.504Z,64.98
2018-07-11T13:37:35.041Z,66.24
2018-07-11T13:38:40.393Z,66.26
2018-07-11T13:39:46.522Z,66.27
2018-07-11T13:40:51.504Z,65.99
2018-07-11T13:41:58.762Z,65.98
2018-07-11T13:43:04.541Z,66.60
2018-07-11T13:44:10.482Z,66.92
2018-07-11T13:45:16.584Z,66.79
2018-07-11T13:46:21.207Z,66.59
2018-07-11T13:47:28.438Z,66.79
2018-07-11T13:48:33.739Z,66.91
2018-07-11T13:49:39.843Z,67.06
2018-07-11T13:50:45.329Z,67.27
2018-07-11T13:51:50.662Z,67.27
2018-07-11T13:52:56.617Z,67.26
2018-07-11T13:54:03.976Z,67.05
2018-07-11T13:55:10.183Z,66.71
2018-07-11T13:56:17.423Z,66.50
2018-07-11T13:57:24.243Z,66.76
2018-07-11T13:58:30.597Z,66.78
2018-07-11T13:59:36.806Z,66.86
2018-07-11T14:00:53.457Z,66.71
2018-07-11T14:01:59.755Z,66.48
2018-07-11T14:03:05.671Z,66.48
2018-07-11T14:04:10.591Z,66.82
2018-07-11T14:05:16.235Z,66.72
2018-07-11T14:06:24.352Z,66.94
2018-07-11T14:07:31.381Z,67.11
2018-07-11T14:08:36.942Z,67.45
2018-07-11T14:09:42.473Z,67.42
2018-07-11T14:10:47.752Z,67.14
2018-07-11T14:11:52.659Z,67.41
2018-07-11T14:12:58.883Z,67.54
2018-07-11T14:14:04.581Z,67.93
2018-07-11T14:15:12.009Z,68.13
2018-07-11T14:16:17.677Z,68.35
2018-07-11T14:17:22.453Z,68.37
2018-07-11T14:18:27.942Z,68.45
2018-07-11T14:19:33.499Z,68.29
2018-07-11T14:20:38.091Z,68.10
2018-07-11T14:21:43.488Z,68.18
2018-07-11T14:22:49.168Z,68.46
2018-07-11T14:23:54.654Z,68.49
2018-07-11T14:25:00.075Z,68.68
2018-07-11T14:26:05.461Z,69.37
2018-07-11T14:27:17.054Z,69.88
2018-07-11T14:28:22.685Z,70.56
2018-07-11T14:29:30.415Z,71.05
2018-07-11T14:30:36.872Z,71.51
2018-07-11T14:31:42.406Z,71.85
2018-07-11T14:32:48.975Z,72.07
2018-07-11T14:33:54.021Z,72.42